Terminal Aerodrome Forecast
Issued by NWS

Home | Current Version | Previous Version | Text Only | Print | Product List | Glossary On
Versions: 1 2 3 4 5 6 7 8 9 10 11 12 13 14 15 16
000
FTUS43 KPAH 222324
TAFCGI
TAF
KCGI 222324Z 2300/2324 05009KT P6SM SCT150
     FM230500 08006KT P6SM BKN080 OVC150
     FM231600 15008KT P6SM SCT040 BKN250=

USA.gov is the U.S. government's official web portal to all federal, state and local government web resources and services.